createdAt,value
2022-12-06T00:02:26.667Z,100258.63
2022-12-06T00:04:56.687Z,100251.78
2022-12-06T00:07:26.598Z,100257.78
2022-12-06T00:09:56.634Z,100248.63
2022-12-06T00:12:29.859Z,100247.16
2022-12-06T00:15:02.818Z,100248.38
2022-12-06T00:17:32.753Z,100248.81
2022-12-06T00:20:02.824Z,100247.97
2022-12-06T00:22:33.002Z,100245.13
2022-12-06T00:25:02.984Z,100251.97
2022-12-06T00:27:35.520Z,100243.34
2022-12-06T00:30:05.619Z,100238.50
2022-12-06T00:32:35.622Z,100244.31
2022-12-06T00:35:05.801Z,100248.59
2022-12-06T00:37:35.775Z,100238.91
2022-12-06T00:40:05.942Z,100236.28
2022-12-06T00:42:38.465Z,100236.63
2022-12-06T00:45:10.040Z,100238.06
2022-12-06T00:47:39.987Z,100222.84
2022-12-06T00:50:11.614Z,100227.81
2022-12-06T00:52:41.466Z,100218.84
2022-12-06T00:55:11.860Z,100220.66
2022-12-06T00:57:44.479Z,100213.06
2022-12-06T01:00:16.095Z,100212.88
2022-12-06T01:02:46.110Z,100214.13
2022-12-06T01:05:16.060Z,100210.63
2022-12-06T01:07:46.314Z,100210.53
2022-12-06T01:10:16.216Z,100202.69
2022-12-06T01:12:48.836Z,100210.91
2022-12-06T01:15:19.165Z,100204.34
2022-12-06T01:17:49.072Z,100202.56
2022-12-06T01:20:19.348Z,100196.25
2022-12-06T01:22:49.323Z,100192.88
2022-12-06T01:25:19.509Z,100185.28
2022-12-06T01:27:52.183Z,100181.06
2022-12-06T01:30:22.537Z,100176.00
2022-12-06T01:32:52.785Z,100170.53
2022-12-06T01:35:22.845Z,100167.38
2022-12-06T01:37:52.941Z,100181.75
2022-12-06T01:40:22.980Z,100178.63
2022-12-06T01:42:55.779Z,100172.81
2022-12-06T01:45:25.870Z,100171.44
2022-12-06T01:47:56.095Z,100168.38
2022-12-06T01:50:30.472Z,100160.56
2022-12-06T01:53:05.251Z,100165.25
2022-12-06T01:55:39.610Z,100156.41
2022-12-06T01:58:15.731Z,100154.88
2022-12-06T02:00:45.820Z,100160.84
2022-12-06T02:03:21.972Z,100153.94
2022-12-06T02:05:52.196Z,100149.38
2022-12-06T02:08:23.851Z,100150.31
2022-12-06T02:10:56.589Z,100144.22
2022-12-06T02:13:29.299Z,100139.81
2022-12-06T02:16:05.260Z,100136.56
2022-12-06T02:18:41.570Z,100136.03
2022-12-06T02:21:19.041Z,100127.31
2022-12-06T02:24:23.203Z,100125.72
2022-12-06T02:26:55.644Z,100122.75
2022-12-06T02:29:58.927Z,100123.38
2022-12-06T02:32:37.664Z,100111.50
2022-12-06T02:35:15.227Z,100116.00
2022-12-06T02:37:50.832Z,100114.31
2022-12-06T02:40:25.345Z,100124.63
2022-12-06T02:43:00.094Z,100125.19
2022-12-06T02:45:33.256Z,100109.50
2022-12-06T02:48:07.484Z,100120.44
2022-12-06T02:50:42.967Z,100114.25
2022-12-06T02:53:17.909Z,100101.53
2022-12-06T02:55:49.399Z,100088.31
2022-12-06T02:58:19.588Z,100102.38
2022-12-06T03:00:53.008Z,100093.88
2022-12-06T03:03:40.087Z,100093.56
2022-12-06T03:06:24.233Z,100080.53
2022-12-06T03:09:08.198Z,100082.31
2022-12-06T03:11:47.492Z,100072.66
2022-12-06T03:14:22.370Z,100076.94
2022-12-06T03:16:59.395Z,100073.50
2022-12-06T03:19:34.745Z,100075.81
2022-12-06T03:22:09.438Z,100082.81
2022-12-06T03:24:42.192Z,100068.34
2022-12-06T03:27:17.179Z,100071.69
2022-12-06T03:29:53.011Z,100067.09
2022-12-06T03:32:27.827Z,100074.72
2022-12-06T03:35:05.715Z,100076.75
2022-12-06T03:37:37.296Z,100062.13
2022-12-06T03:40:15.316Z,100047.53
2022-12-06T03:42:45.765Z,100053.22
2022-12-06T03:45:17.045Z,100046.91
2022-12-06T03:47:53.275Z,100035.56
2022-12-06T03:50:32.343Z,100043.44
2022-12-06T03:53:03.916Z,100012.88
2022-12-06T03:55:33.995Z,100038.91
2022-12-06T03:58:04.094Z,100044.19
2022-12-06T04:00:34.113Z,100050.81
2022-12-06T04:03:04.194Z,100044.38
2022-12-06T04:05:37.017Z,100050.91
2022-12-06T04:08:07.846Z,100043.53
2022-12-06T04:10:38.248Z,100041.34
2022-12-06T04:13:08.614Z,100034.63
2022-12-06T04:15:40.480Z,100035.97
2022-12-06T04:18:13.722Z,100025.69
2022-12-06T04:21:02.028Z,100032.31
2022-12-06T04:23:33.683Z,100031.38
2022-12-06T04:26:04.502Z,100037.22
2022-12-06T04:28:47.220Z,100035.22
2022-12-06T04:31:29.793Z,100034.69
2022-12-06T04:34:12.262Z,100030.06
2022-12-06T04:36:57.530Z,100031.66
2022-12-06T04:39:28.207Z,100023.13
2022-12-06T04:42:10.867Z,100023.34
2022-12-06T04:44:45.835Z,100024.09
2022-12-06T04:47:15.950Z,100019.56
2022-12-06T04:49:46.470Z,100015.34
2022-12-06T04:52:20.113Z,100024.44
2022-12-06T04:54:50.431Z,100031.88
2022-12-06T04:57:20.645Z,100030.19
2022-12-06T04:59:51.265Z,100029.22
2022-12-06T05:02:21.283Z,100035.31
2022-12-06T05:04:51.314Z,100035.22
2022-12-06T05:07:24.033Z,100026.50
2022-12-06T05:09:54.153Z,100024.50
2022-12-06T05:12:24.286Z,100011.38
2022-12-06T05:14:54.239Z,100002.31
2022-12-06T05:17:24.366Z,100016.19
2022-12-06T05:19:54.448Z,100013.16
2022-12-06T05:22:27.078Z,100012.09
2022-12-06T05:24:57.146Z,99999.91
2022-12-06T05:27:29.554Z,99996.44
2022-12-06T05:30:03.170Z,99982.56
2022-12-06T05:32:33.269Z,99984.25
2022-12-06T05:35:03.915Z,99986.97
2022-12-06T05:37:36.542Z,99981.72
2022-12-06T05:40:07.424Z,99971.22
2022-12-06T05:42:37.823Z,99972.38
2022-12-06T05:45:09.118Z,99969.41
2022-12-06T05:47:39.993Z,99967.75
2022-12-06T05:50:12.394Z,99969.22
2022-12-06T05:52:47.558Z,99977.72
2022-12-06T05:55:17.895Z,99968.78
2022-12-06T05:57:47.923Z,99967.63
2022-12-06T06:00:19.024Z,99964.91
2022-12-06T06:02:50.185Z,99964.91
2022-12-06T06:05:20.553Z,99964.78
2022-12-06T06:07:53.275Z,99965.53
2022-12-06T06:10:23.359Z,99964.69
2022-12-06T06:12:53.675Z,99951.75
2022-12-06T06:15:23.714Z,99959.44
2022-12-06T06:17:53.794Z,99951.66
2022-12-06T06:20:23.966Z,99956.19
2022-12-06T06:22:59.749Z,99949.34
2022-12-06T06:25:29.836Z,99950.19
2022-12-06T06:27:59.895Z,99943.25
2022-12-06T06:30:31.984Z,99944.19
2022-12-06T06:33:02.083Z,99940.41
2022-12-06T06:35:32.298Z,99941.56
2022-12-06T06:38:05.441Z,99959.13
2022-12-06T06:40:35.775Z,99956.84
2022-12-06T06:43:18.602Z,99958.38
2022-12-06T06:45:49.596Z,99951.34
2022-12-06T06:48:20.208Z,99951.69
2022-12-06T06:50:55.405Z,99946.19
2022-12-06T06:53:29.890Z,99942.72
2022-12-06T06:56:00.095Z,99941.06
2022-12-06T06:58:30.248Z,99947.13
2022-12-06T07:01:03.764Z,99947.88
2022-12-06T07:03:34.657Z,99939.59
2022-12-06T07:06:07.365Z,99945.59
2022-12-06T07:08:41.629Z,99940.44
2022-12-06T07:11:13.616Z,99926.25
2022-12-06T07:13:51.201Z,99930.69
2022-12-06T07:16:22.831Z,99929.41
2022-12-06T07:18:53.103Z,99923.44
2022-12-06T07:21:24.300Z,99913.28
2022-12-06T07:23:56.900Z,99929.03
2022-12-06T07:26:29.031Z,99917.25
2022-12-06T07:28:59.471Z,99916.63
2022-12-06T07:31:31.693Z,99912.44
2022-12-06T07:34:03.549Z,99916.63
2022-12-06T07:36:35.175Z,99913.28
2022-12-06T07:39:14.267Z,99908.84
2022-12-06T07:41:57.256Z,99914.09
2022-12-06T07:44:39.806Z,99904.44
2022-12-06T07:47:09.862Z,99898.78
2022-12-06T07:49:39.871Z,99894.47
2022-12-06T07:52:09.933Z,99889.00
2022-12-06T07:54:42.654Z,99892.38
2022-12-06T07:57:12.721Z,99886.38
2022-12-06T07:59:42.778Z,99881.75
2022-12-06T08:02:21.189Z,99886.59
2022-12-06T08:04:51.626Z,99881.34
2022-12-06T08:07:21.945Z,99878.72
2022-12-06T08:09:55.526Z,99875.44
2022-12-06T08:12:26.735Z,99873.03
2022-12-06T08:14:59.791Z,99884.47
2022-12-06T08:17:30.470Z,99884.16
2022-12-06T08:20:01.122Z,99874.19
2022-12-06T08:22:31.492Z,99878.28
2022-12-06T08:25:04.112Z,99883.00
2022-12-06T08:27:34.190Z,99885.22
2022-12-06T08:30:04.298Z,99881.13
2022-12-06T08:32:34.408Z,99883.44
2022-12-06T08:35:04.526Z,99886.53
2022-12-06T08:37:36.201Z,99886.91
2022-12-06T08:40:10.611Z,99890.38
2022-12-06T08:42:42.684Z,99868.72
2022-12-06T08:45:13.150Z,99880.59
2022-12-06T08:47:43.325Z,99884.38
2022-12-06T08:50:14.002Z,99892.88
2022-12-06T08:52:44.380Z,99891.94
2022-12-06T08:55:17.016Z,99901.72
2022-12-06T08:57:47.150Z,99895.81
2022-12-06T09:00:19.097Z,99907.28
2022-12-06T09:02:49.632Z,99911.28
2022-12-06T09:05:19.824Z,99920.50
2022-12-06T09:07:50.064Z,99913.38
2022-12-06T09:10:22.925Z,99906.44
2022-12-06T09:12:53.081Z,99895.66
2022-12-06T09:15:23.594Z,99896.47
2022-12-06T09:17:53.679Z,99885.88
2022-12-06T09:20:23.843Z,99876.44
2022-12-06T09:22:53.917Z,99869.69
2022-12-06T09:25:26.584Z,99865.09
2022-12-06T09:27:56.753Z,99855.19
2022-12-06T09:30:27.283Z,99854.13
2022-12-06T09:33:04.675Z,99850.66
2022-12-06T09:35:35.098Z,99843.41
2022-12-06T09:38:05.781Z,99832.16
2022-12-06T09:40:46.465Z,99844.03
2022-12-06T09:43:30.309Z,99849.41
2022-12-06T09:46:14.314Z,99841.84
2022-12-06T09:49:04.828Z,99839.00
2022-12-06T09:51:48.698Z,99832.50
2022-12-06T09:54:39.013Z,99820.84
2022-12-06T09:57:21.471Z,99831.13
2022-12-06T10:00:03.715Z,99817.81
2022-12-06T10:03:13.647Z,99800.78
2022-12-06T10:06:01.692Z,99790.56
2022-12-06T10:09:24.027Z,99789.94
2022-12-06T10:12:06.040Z,99771.09
2022-12-06T10:55:38.879Z,99788.69
2022-12-06T10:58:18.821Z,99777.31
2022-12-06T11:00:57.993Z,99777.03
2022-12-06T11:03:35.078Z,99770.88
2022-12-06T11:06:12.837Z,99782.41
2022-12-06T11:08:46.780Z,99782.75
2022-12-06T11:11:21.326Z,99780.81
2022-12-06T11:14:02.493Z,99777.88
2022-12-06T11:16:36.995Z,99766.66
2022-12-06T11:19:23.435Z,99772.84
2022-12-06T11:21:59.948Z,99762.69
2022-12-06T11:24:35.711Z,99769.38
2022-12-06T11:27:16.125Z,99772.47
2022-12-06T11:29:51.323Z,99763.97
2022-12-06T11:32:22.144Z,99752.41
2022-12-06T11:34:56.517Z,99770.22
2022-12-06T11:37:29.424Z,99765.47
2022-12-06T11:40:09.138Z,99761.69
2022-12-06T11:42:41.903Z,99760.09
2022-12-06T11:45:18.769Z,99745.75
2022-12-06T11:47:49.488Z,99747.81
2022-12-06T11:50:22.573Z,99745.78
2022-12-06T11:52:56.015Z,99751.53
2022-12-06T11:55:30.353Z,99744.38
2022-12-06T11:58:09.983Z,99737.75
2022-12-06T12:00:44.013Z,99719.38
2022-12-06T12:03:28.828Z,99734.69
2022-12-06T12:06:11.420Z,99725.22
2022-12-06T12:08:41.831Z,99721.31
2022-12-06T12:11:23.647Z,99709.97
2022-12-06T12:14:00.965Z,99713.81
2022-12-06T12:16:35.279Z,99719.34
2022-12-06T12:19:07.341Z,99703.78
2022-12-06T12:21:43.343Z,99713.13
2022-12-06T12:27:48.000Z,99719.69
2022-12-06T12:30:31.188Z,99719.47
2022-12-06T12:33:20.324Z,99708.09
2022-12-06T12:35:57.086Z,99712.03
2022-12-06T12:38:31.416Z,99709.06
2022-12-06T12:41:05.354Z,99718.00
2022-12-06T12:43:37.210Z,99733.44
2022-12-06T12:46:21.462Z,99733.06
2022-12-06T12:48:53.631Z,99730.19
2022-12-06T12:51:36.430Z,99732.03
2022-12-06T12:54:09.258Z,99728.06
2022-12-06T12:56:41.635Z,99735.13
2022-12-06T12:59:19.663Z,99730.19
2022-12-06T13:01:57.317Z,99731.28
2022-12-06T13:04:41.406Z,99740.13
2022-12-06T13:07:20.248Z,99727.56
2022-12-06T13:09:58.526Z,99729.97
2022-12-06T13:12:33.710Z,99728.19
2022-12-06T13:15:10.216Z,99715.25
2022-12-06T13:17:49.602Z,99719.69
2022-12-06T13:20:25.565Z,99716.09
2022-12-06T13:22:59.903Z,99718.63
2022-12-06T13:25:30.071Z,99723.16
2022-12-06T13:28:05.563Z,99719.47
2022-12-06T13:30:41.412Z,99721.97
2022-12-06T13:33:22.009Z,99731.75
2022-12-06T13:35:58.492Z,99737.25
2022-12-06T13:38:34.077Z,99742.00
2022-12-06T13:41:05.802Z,99740.78
2022-12-06T13:43:56.515Z,99751.41
2022-12-06T13:46:34.881Z,99742.47
2022-12-06T13:49:27.694Z,99742.25
2022-12-06T13:51:57.864Z,99743.81
2022-12-06T13:54:37.030Z,99750.78
2022-12-06T13:57:32.192Z,99746.38
2022-12-06T14:00:03.018Z,99745.41
2022-12-06T14:02:54.586Z,99751.47
2022-12-06T14:08:29.123Z,99748.41
2022-12-06T14:11:11.088Z,99742.88
2022-12-06T14:13:42.414Z,99748.13
2022-12-06T14:16:18.248Z,99745.78
2022-12-06T14:18:48.825Z,99749.00
2022-12-06T14:21:26.690Z,99746.28
2022-12-06T14:23:59.796Z,99743.84
2022-12-06T14:26:31.572Z,99732.63
2022-12-06T14:29:03.300Z,99744.06
2022-12-06T14:31:41.184Z,99742.81
2022-12-06T14:34:28.155Z,99735.03
2022-12-06T14:36:59.304Z,99743.66
2022-12-06T14:39:33.817Z,99744.47
2022-12-06T14:42:18.360Z,99750.78
2022-12-06T14:44:51.596Z,99747.44
2022-12-06T14:47:23.740Z,99748.16
2022-12-06T14:50:08.635Z,99740.31
2022-12-06T14:52:38.660Z,99759.09
2022-12-06T14:55:21.370Z,99758.47
2022-12-06T14:57:54.182Z,99756.69
2022-12-06T15:00:27.784Z,99755.41
2022-12-06T15:03:01.932Z,99763.41
2022-12-06T15:05:40.675Z,99761.94
2022-12-06T15:08:22.936Z,99768.94
2022-12-06T15:11:03.975Z,99770.53
2022-12-06T15:13:31.954Z,99759.72
2022-12-06T15:16:13.991Z,99760.03
2022-12-06T15:18:47.888Z,99755.00
2022-12-06T15:21:19.848Z,99746.28
2022-12-06T15:23:51.465Z,99746.22
2022-12-06T15:26:25.912Z,99736.13
2022-12-06T15:28:55.917Z,99742.75
2022-12-06T15:31:30.083Z,99742.94
2022-12-06T15:34:00.284Z,99748.41
2022-12-06T15:36:33.428Z,99752.81
2022-12-06T15:39:03.547Z,99755.00
2022-12-06T15:41:38.315Z,99762.13
2022-12-06T15:44:08.810Z,99756.88
2022-12-06T15:46:38.854Z,99758.44
2022-12-06T15:49:09.356Z,99755.53
2022-12-06T15:51:39.338Z,99751.22
2022-12-06T15:54:09.511Z,99753.31
2022-12-06T15:56:42.162Z,99753.31
2022-12-06T15:59:12.395Z,99754.38
2022-12-06T16:01:45.240Z,99757.31
2022-12-06T16:04:22.678Z,99762.97
2022-12-06T16:06:53.170Z,99757.94
2022-12-06T16:09:23.546Z,99754.28
2022-12-06T16:11:56.717Z,99750.72
2022-12-06T16:14:26.901Z,99748.81
2022-12-06T16:16:57.029Z,99761.19
2022-12-06T16:19:47.144Z,99768.31
2022-12-06T16:22:17.265Z,99758.97
2022-12-06T16:24:46.240Z,99761.91
2022-12-06T16:27:22.209Z,99769.13
2022-12-06T16:29:52.255Z,99758.34
2022-12-06T16:32:22.335Z,99768.94
2022-12-06T16:34:52.479Z,99766.63
2022-12-06T16:37:22.406Z,99768.50
2022-12-06T16:39:52.880Z,99763.34
2022-12-06T16:42:25.731Z,99759.34
2022-12-06T16:44:55.830Z,99761.22
2022-12-06T16:49:54.895Z,99772.00
2022-12-06T16:52:25.010Z,99773.97
2022-12-06T16:54:55.167Z,99770.31
2022-12-06T16:57:27.766Z,99774.53
2022-12-06T16:59:57.938Z,99775.34
2022-12-06T17:02:29.927Z,99774.59
2022-12-06T17:05:02.337Z,99772.25
2022-12-06T17:07:32.966Z,99772.06
2022-12-06T17:10:03.300Z,99781.28
2022-12-06T17:12:36.179Z,99778.47
2022-12-06T17:15:06.603Z,99775.19
2022-12-06T17:17:36.682Z,99772.91
2022-12-06T17:20:10.939Z,99770.59
2022-12-06T17:22:44.597Z,99776.84
2022-12-06T17:25:16.351Z,99777.78
2022-12-06T17:27:50.039Z,99775.16
2022-12-06T17:30:22.401Z,99784.16
2022-12-06T17:32:52.382Z,99785.09
2022-12-06T17:35:22.445Z,99790.25
2022-12-06T17:37:54.580Z,99787.81
2022-12-06T17:40:24.624Z,99779.00
2022-12-06T17:43:00.503Z,99778.91
2022-12-06T17:45:30.793Z,99774.34
2022-12-06T17:48:01.283Z,99779.56
2022-12-06T17:50:31.487Z,99777.88
2022-12-06T17:53:01.678Z,99779.31
2022-12-06T17:55:31.773Z,99778.38
2022-12-06T17:58:05.114Z,99775.94
2022-12-06T18:00:35.192Z,99778.97
2022-12-06T18:03:05.403Z,99779.63
2022-12-06T18:05:35.632Z,99779.06
2022-12-06T18:08:05.880Z,99781.03
2022-12-06T18:10:36.040Z,99769.19
2022-12-06T18:13:10.427Z,99772.00
2022-12-06T18:15:42.023Z,99765.47
2022-12-06T18:18:12.124Z,99769.19
2022-12-06T18:20:47.093Z,99763.41
2022-12-06T18:23:17.419Z,99764.66
2022-12-06T18:25:47.548Z,99764.91
2022-12-06T18:28:20.212Z,99765.19
2022-12-06T18:30:50.313Z,99762.03
2022-12-06T18:33:22.568Z,99769.41
2022-12-06T18:35:54.671Z,99757.56
2022-12-06T18:38:24.905Z,99761.56
2022-12-06T18:40:55.250Z,99758.19
2022-12-06T18:43:27.915Z,99744.66
2022-12-06T18:46:00.888Z,99752.78
2022-12-06T18:48:32.216Z,99744.56
2022-12-06T18:51:02.934Z,99757.06
2022-12-06T18:53:35.525Z,99760.78
2022-12-06T18:56:06.171Z,99763.56
2022-12-06T18:58:39.119Z,99755.19
2022-12-06T19:01:15.229Z,99750.13
2022-12-06T19:03:46.467Z,99750.22
2022-12-06T19:06:18.311Z,99751.06
2022-12-06T19:08:48.472Z,99744.59
2022-12-06T19:11:21.812Z,99744.69
2022-12-06T19:13:58.690Z,99748.50
2022-12-06T19:16:33.056Z,99745.50
2022-12-06T19:19:05.231Z,99734.41
2022-12-06T19:21:36.240Z,99741.66
2022-12-06T19:24:07.332Z,99753.34
2022-12-06T19:26:37.392Z,99750.38
2022-12-06T19:29:10.277Z,99751.06
2022-12-06T19:31:40.487Z,99752.44
2022-12-06T19:34:16.874Z,99751.00
2022-12-06T19:36:47.567Z,99754.88
2022-12-06T19:39:18.081Z,99752.19
2022-12-06T19:42:01.509Z,99757.22
2022-12-06T19:44:35.712Z,99762.19
2022-12-06T19:47:09.012Z,99762.03
2022-12-06T19:49:39.163Z,99752.91
2022-12-06T19:52:09.167Z,99749.69
2022-12-06T19:54:40.322Z,99744.13
2022-12-06T19:57:10.722Z,99739.47
2022-12-06T19:59:43.479Z,99747.78
2022-12-06T20:02:14.836Z,99742.66
2022-12-06T20:04:46.579Z,99742.91
2022-12-06T20:07:16.652Z,99739.75
2022-12-06T20:09:46.764Z,99708.81
2022-12-06T20:12:17.621Z,99739.19
2022-12-06T20:14:54.878Z,99744.31
2022-12-06T20:17:25.968Z,99740.84
2022-12-06T20:19:56.975Z,99734.53
2022-12-06T20:22:27.120Z,99739.22
2022-12-06T20:24:57.251Z,99733.81
2022-12-06T20:27:47.313Z,99732.78
2022-12-06T20:30:26.301Z,99726.56
2022-12-06T20:32:56.432Z,99736.91
2022-12-06T20:35:27.784Z,99734.22
2022-12-06T20:38:01.084Z,99731.59
2022-12-06T20:40:31.889Z,99735.16
2022-12-06T20:43:02.088Z,99724.78
2022-12-06T20:45:34.793Z,99730.94
2022-12-06T20:48:05.042Z,99733.88
2022-12-06T20:50:35.183Z,99732.56
2022-12-06T20:53:05.320Z,99731.25
2022-12-06T20:55:36.313Z,99732.38
2022-12-06T20:58:06.367Z,99731.69
2022-12-06T21:00:39.076Z,99729.34
2022-12-06T21:03:09.249Z,99733.72
2022-12-06T21:05:43.340Z,99728.69
2022-12-06T21:08:15.361Z,99738.28
2022-12-06T21:11:20.752Z,99738.84
2022-12-06T21:13:36.746Z,99743.50
2022-12-06T21:16:11.245Z,99742.84
2022-12-06T21:18:41.778Z,99742.72
2022-12-06T21:21:12.570Z,99742.63
2022-12-06T21:23:42.613Z,99747.69
2022-12-06T21:26:13.067Z,99750.47
2022-12-06T21:28:43.176Z,99751.50
2022-12-06T21:31:15.939Z,99749.66
2022-12-06T21:33:46.144Z,99762.03
2022-12-06T21:36:16.182Z,99753.69
2022-12-06T21:38:49.398Z,99758.16
2022-12-06T21:41:19.982Z,99752.34
2022-12-06T21:43:50.660Z,99734.84
2022-12-06T21:46:25.566Z,99744.97
2022-12-06T21:48:57.464Z,99744.63
2022-12-06T21:51:29.503Z,99748.91
2022-12-06T21:54:00.103Z,99740.56
2022-12-06T21:56:33.697Z,99743.34
2022-12-06T21:59:03.855Z,99749.25
2022-12-06T22:01:36.540Z,99761.50
2022-12-06T22:04:06.628Z,99755.53
2022-12-06T22:06:38.796Z,99747.97
2022-12-06T22:09:09.072Z,99759.31
2022-12-06T22:11:39.179Z,99750.81
2022-12-06T22:14:09.159Z,99755.34
2022-12-06T22:16:41.796Z,99761.59
2022-12-06T22:19:12.040Z,99763.75
2022-12-06T22:21:42.096Z,99759.72
2022-12-06T22:24:12.225Z,99766.81
2022-12-06T22:26:42.430Z,99756.25
2022-12-06T22:29:13.124Z,99768.44
2022-12-06T22:31:45.997Z,99768.13
2022-12-06T22:34:16.176Z,99767.34
2022-12-06T22:36:46.328Z,99768.13
2022-12-06T22:39:16.439Z,99756.25
2022-12-06T22:41:46.504Z,99762.13
2022-12-06T22:44:16.661Z,99761.78
2022-12-06T22:46:49.555Z,99761.94
2022-12-06T22:49:19.696Z,99771.09
2022-12-06T22:51:49.736Z,99769.78
2022-12-06T22:54:19.765Z,99764.81
2022-12-06T22:56:50.191Z,99751.94
2022-12-06T22:59:22.314Z,99756.56
2022-12-06T23:01:54.911Z,99760.16
2022-12-06T23:04:25.034Z,99757.78
2022-12-06T23:06:57.896Z,99754.34
2022-12-06T23:09:28.172Z,99750.19
2022-12-06T23:11:58.358Z,99747.50
2022-12-06T23:14:28.341Z,99753.56
2022-12-06T23:17:01.228Z,99736.72
2022-12-06T23:19:31.413Z,99753.72
2022-12-06T23:22:01.445Z,99759.78
2022-12-06T23:24:31.457Z,99763.28
2022-12-06T23:27:01.803Z,99766.13
2022-12-06T23:29:32.017Z,99762.84
2022-12-06T23:32:07.094Z,99760.25
2022-12-06T23:34:37.242Z,99762.94
2022-12-06T23:37:07.791Z,99762.00
2022-12-06T23:39:38.074Z,99750.97
2022-12-06T23:42:08.778Z,99752.53
2022-12-06T23:44:40.218Z,99752.19
2022-12-06T23:47:12.917Z,99750.34
2022-12-06T23:49:43.059Z,99751.56
2022-12-06T23:52:13.166Z,99755.41
2022-12-06T23:54:43.191Z,99755.88
2022-12-06T23:57:15.121Z,99750.50
2022-12-06T23:59:45.291Z,99749.66
